Pagrindinis puslapis
METAR-TAF:

METAR-TAF

Oro uostai :

Liublinas, Lenkija

platuma: 51-13-55N, ilguma: 22-41-25E, Aukštis: 203 m

Dabartinis oras

Ataskaita buvo paskelbta 27 minutes, ne 08:30 UTC
Vėjas 2 kt nuo kintamojo kryptimis
Temperatūra 14°C
Drėgmė 82%
Slėgis 1016 hPa
Matomumas 10 km arba daugiau
nėra debesų žemiau 1500 m ir nėra kamuolinių lietaus debesų

METAR: EPLB 180830Z VRB02KT CAVOK 14/11 Q1016

Laikas: 10:57 (08:57 UTC)

Prognozė

Ataskaita buvo paskelbta 27 minutes, ne 08:30 UTC
Prognozė galioja nuo 18 metu 09 UTC su 18 metu 18 UTC
Vėjas 5 kt iš Pietų
Matomumas 10 km arba daugiau
nėra debesų žemiau 1500 m ir nėra kamuolinių lietaus debesų

TAF: EPLB 180830Z 1809/1818 17005KT CAVOK

Orai ataskaitas ir orų prognozės (METAR, TAF).

turimą stotys yra geltonos ir raudonos taškus žemėlapyje.

Perkelti pele per norėdami pamatyti stoties vardą.

Tada spustelėkite, norėdami matyti oro stebėjimo ir prognozės.

Norėdami pakeisti žemėlapį: spustelėkite ant žalios mygtukų su juodo kryžiaus žemyn,; žalią mygtuką su brūkšneliu, jei norite nutolinti; arba žalių rodyklių gretimoms žemėlapius.


METAR-TAF: